sensor_id;sensor_type;location;lat;lon;timestamp;pressure;altitude;pressure_sealevel;temperature;humidity
70370;BME280;57790;51.356;-2.906;2023-03-26T00:00:55;100237.69;;;11.94;100.00
70370;BME280;57790;51.356;-2.906;2023-03-26T00:03:56;100228.53;;;11.97;100.00
70370;BME280;57790;51.356;-2.906;2023-03-26T00:06:58;100221.94;;;11.93;100.00
70370;BME280;57790;51.356;-2.906;2023-03-26T00:09:58;100214.97;;;11.91;100.00
70370;BME280;57790;51.356;-2.906;2023-03-26T00:12:59;100209.03;;;11.89;100.00
70370;BME280;57790;51.356;-2.906;2023-03-26T00:16:00;100209.03;;;11.89;100.00
70370;BME280;57790;51.356;-2.906;2023-03-26T00:19:01;100207.72;;;11.85;100.00
70370;BME280;57790;51.356;-2.906;2023-03-26T00:22:01;100198.31;;;11.83;100.00
70370;BME280;57790;51.356;-2.906;2023-03-26T00:25:03;100200.50;;;11.79;100.00
70370;BME280;57790;51.356;-2.906;2023-03-26T00:28:04;100198.84;;;11.78;100.00
70370;BME280;57790;51.356;-2.906;2023-03-26T00:31:09;100197.19;;;11.77;100.00
70370;BME280;57790;51.356;-2.906;2023-03-26T00:34:10;100203.69;;;11.75;100.00
70370;BME280;57790;51.356;-2.906;2023-03-26T00:37:11;100198.38;;;11.75;100.00
70370;BME280;57790;51.356;-2.906;2023-03-26T00:40:11;100195.81;;;11.67;100.00
70370;BME280;57790;51.356;-2.906;2023-03-26T00:43:13;100188.84;;;11.66;100.00
70370;BME280;57790;51.356;-2.906;2023-03-26T00:46:19;100192.78;;;11.70;100.00
70370;BME280;57790;51.356;-2.906;2023-03-26T00:49:20;100183.91;;;11.62;100.00
70370;BME280;57790;51.356;-2.906;2023-03-26T00:52:20;100186.19;;;11.51;100.00
70370;BME280;57790;51.356;-2.906;2023-03-26T00:55:21;100185.72;;;11.47;100.00
70370;BME280;57790;51.356;-2.906;2023-03-26T00:58:22;100188.38;;;11.47;100.00
70370;BME280;57790;51.356;-2.906;2023-03-26T01:01:25;100179.50;;;11.40;100.00
70370;BME280;57790;51.356;-2.906;2023-03-26T01:04:28;100179.16;;;11.43;100.00
70370;BME280;57790;51.356;-2.906;2023-03-26T01:07:29;100179.59;;;11.47;100.00
70370;BME280;57790;51.356;-2.906;2023-03-26T01:10:30;100182.88;;;11.34;100.00
70370;BME280;57790;51.356;-2.906;2023-03-26T01:13:39;100169.59;;;11.34;100.00
70370;BME280;57790;51.356;-2.906;2023-03-26T01:16:50;100172.72;;;11.38;100.00
70370;BME280;57790;51.356;-2.906;2023-03-26T01:20:05;100172.34;;;11.26;100.00
70370;BME280;57790;51.356;-2.906;2023-03-26T01:23:16;100165.00;;;11.28;100.00
70370;BME280;57790;51.356;-2.906;2023-03-26T01:29:53;100173.63;;;11.15;100.00
70370;BME280;57790;51.356;-2.906;2023-03-26T01:33:04;100163.88;;;11.08;100.00
70370;BME280;57790;51.356;-2.906;2023-03-26T01:39:56;100149.63;;;11.09;100.00
70370;BME280;57790;51.356;-2.906;2023-03-26T01:43:11;100153.09;;;11.09;100.00
70370;BME280;57790;51.356;-2.906;2023-03-26T01:46:13;100154.66;;;11.03;100.00
70370;BME280;57790;51.356;-2.906;2023-03-26T01:49:17;100147.88;;;11.01;100.00
70370;BME280;57790;51.356;-2.906;2023-03-26T01:52:20;100145.06;;;11.02;100.00
70370;BME280;57790;51.356;-2.906;2023-03-26T01:55:40;100144.75;;;10.97;100.00
70370;BME280;57790;51.356;-2.906;2023-03-26T02:05:06;100135.06;;;10.90;100.00
70370;BME280;57790;51.356;-2.906;2023-03-26T02:08:27;100136.06;;;10.89;100.00
70370;BME280;57790;51.356;-2.906;2023-03-26T02:11:36;100133.41;;;10.89;100.00
70370;BME280;57790;51.356;-2.906;2023-03-26T02:14:37;100126.63;;;10.86;100.00
70370;BME280;57790;51.356;-2.906;2023-03-26T02:17:38;100129.63;;;10.83;100.00
70370;BME280;57790;51.356;-2.906;2023-03-26T02:20:39;100119.19;;;10.82;100.00
70370;BME280;57790;51.356;-2.906;2023-03-26T02:23:43;100120.38;;;10.79;100.00
70370;BME280;57790;51.356;-2.906;2023-03-26T02:26:45;100119.09;;;10.75;100.00
70370;BME280;57790;51.356;-2.906;2023-03-26T02:29:46;100110.16;;;10.76;100.00
70370;BME280;57790;51.356;-2.906;2023-03-26T02:32:46;100106.84;;;10.74;100.00
70370;BME280;57790;51.356;-2.906;2023-03-26T02:35:51;100104.19;;;10.74;100.00
70370;BME280;57790;51.356;-2.906;2023-03-26T02:38:52;100105.47;;;10.78;100.00
70370;BME280;57790;51.356;-2.906;2023-03-26T02:41:53;100103.84;;;10.77;100.00
70370;BME280;57790;51.356;-2.906;2023-03-26T02:44:53;100100.53;;;10.75;100.00
70370;BME280;57790;51.356;-2.906;2023-03-26T02:47:54;100095.88;;;10.77;100.00
70370;BME280;57790;51.356;-2.906;2023-03-26T02:50:54;100087.94;;;10.77;100.00
70370;BME280;57790;51.356;-2.906;2023-03-26T02:53:54;100084.81;;;10.73;100.00
70370;BME280;57790;51.356;-2.906;2023-03-26T02:56:55;100086.16;;;10.69;100.00
70370;BME280;57790;51.356;-2.906;2023-03-26T02:59:55;100087.84;;;10.70;100.00
70370;BME280;57790;51.356;-2.906;2023-03-26T03:02:57;100083.50;;;10.69;100.00
70370;BME280;57790;51.356;-2.906;2023-03-26T03:05:57;100086.16;;;10.69;100.00
70370;BME280;57790;51.356;-2.906;2023-03-26T03:08:58;100085.34;;;10.69;100.00
70370;BME280;57790;51.356;-2.906;2023-03-26T03:11:58;100085.53;;;10.67;100.00
70370;BME280;57790;51.356;-2.906;2023-03-26T03:14:59;100088.16;;;10.67;100.00
70370;BME280;57790;51.356;-2.906;2023-03-26T03:17:59;100085.34;;;10.69;100.00
70370;BME280;57790;51.356;-2.906;2023-03-26T03:21:00;100079.59;;;10.65;100.00
70370;BME280;57790;51.356;-2.906;2023-03-26T03:24:01;100093.00;;;10.64;100.00
70370;BME280;57790;51.356;-2.906;2023-03-26T03:27:02;100093.84;;;10.64;100.00
70370;BME280;57790;51.356;-2.906;2023-03-26T03:30:02;100087.72;;;10.64;100.00
70370;BME280;57790;51.356;-2.906;2023-03-26T03:33:03;100090.19;;;10.65;100.00
70370;BME280;57790;51.356;-2.906;2023-03-26T03:36:05;100084.25;;;10.63;100.00
70370;BME280;57790;51.356;-2.906;2023-03-26T03:39:09;100086.06;;;10.63;100.00
70370;BME280;57790;51.356;-2.906;2023-03-26T03:42:10;100079.94;;;10.62;100.00
70370;BME280;57790;51.356;-2.906;2023-03-26T03:45:11;100073.81;;;10.62;100.00
70370;BME280;57790;51.356;-2.906;2023-03-26T03:48:11;100075.28;;;10.64;100.00
70370;BME280;57790;51.356;-2.906;2023-03-26T03:51:12;100086.06;;;10.63;100.00
70370;BME280;57790;51.356;-2.906;2023-03-26T03:54:12;100081.13;;;10.60;100.00
70370;BME280;57790;51.356;-2.906;2023-03-26T03:57:13;100083.78;;;10.60;100.00
70370;BME280;57790;51.356;-2.906;2023-03-26T04:00:15;100079.66;;;10.57;100.00
70370;BME280;57790;51.356;-2.906;2023-03-26T04:03:17;100085.13;;;10.56;100.00
70370;BME280;57790;51.356;-2.906;2023-03-26T04:06:18;100087.13;;;10.54;100.00
70370;BME280;57790;51.356;-2.906;2023-03-26T04:09:18;100092.44;;;10.54;100.00
70370;BME280;57790;51.356;-2.906;2023-03-26T04:12:18;100095.72;;;10.56;100.00
70370;BME280;57790;51.356;-2.906;2023-03-26T04:15:19;100095.91;;;10.54;100.00
70370;BME280;57790;51.356;-2.906;2023-03-26T04:18:20;100100.19;;;10.55;100.00
70370;BME280;57790;51.356;-2.906;2023-03-26T04:21:21;100099.38;;;10.55;100.00
70370;BME280;57790;51.356;-2.906;2023-03-26T04:24:23;100094.56;;;10.58;100.00
70370;BME280;57790;51.356;-2.906;2023-03-26T04:27:27;100098.38;;;10.56;100.00
70370;BME280;57790;51.356;-2.906;2023-03-26T04:30:31;100100.88;;;10.57;100.00
70370;BME280;57790;51.356;-2.906;2023-03-26T04:33:33;100100.69;;;10.59;100.00
70370;BME280;57790;51.356;-2.906;2023-03-26T04:36:34;100115.78;;;10.58;100.00
70370;BME280;57790;51.356;-2.906;2023-03-26T04:39:34;100100.69;;;10.59;100.00
70370;BME280;57790;51.356;-2.906;2023-03-26T04:42:36;100094.56;;;10.58;100.00
70370;BME280;57790;51.356;-2.906;2023-03-26T04:45:40;100102.34;;;10.60;100.00
70370;BME280;57790;51.356;-2.906;2023-03-26T04:48:41;100105.16;;;10.58;100.00
70370;BME280;57790;51.356;-2.906;2023-03-26T04:51:41;100102.69;;;10.57;100.00
70370;BME280;57790;51.356;-2.906;2023-03-26T04:54:44;100102.69;;;10.57;100.00
70370;BME280;57790;51.356;-2.906;2023-03-26T04:57:49;100103.66;;;10.56;100.00
70370;BME280;57790;51.356;-2.906;2023-03-26T05:00:52;100111.63;;;10.56;100.00
70370;BME280;57790;51.356;-2.906;2023-03-26T05:03:53;100112.47;;;10.56;100.00
70370;BME280;57790;51.356;-2.906;2023-03-26T05:06:55;100109.97;;;10.55;100.00
70370;BME280;57790;51.356;-2.906;2023-03-26T05:09:58;100114.28;;;10.56;100.00
70370;BME280;57790;51.356;-2.906;2023-03-26T05:13:02;100110.34;;;10.52;100.00
70370;BME280;57790;51.356;-2.906;2023-03-26T05:16:03;100115.34;;;10.47;100.00
70370;BME280;57790;51.356;-2.906;2023-03-26T05:19:03;100110.59;;;10.42;100.00
70370;BME280;57790;51.356;-2.906;2023-03-26T05:22:04;100104.47;;;10.41;100.00
70370;BME280;57790;51.356;-2.906;2023-03-26T05:25:05;100115.53;;;10.45;100.00
70370;BME280;57790;51.356;-2.906;2023-03-26T05:28:05;100122.03;;;10.42;100.00
70370;BME280;57790;51.356;-2.906;2023-03-26T05:31:06;100127.13;;;10.44;100.00
70370;BME280;57790;51.356;-2.906;2023-03-26T05:34:07;100126.00;;;10.38;100.00
70370;BME280;57790;51.356;-2.906;2023-03-26T05:37:07;100132.63;;;10.42;100.00
70370;BME280;57790;51.356;-2.906;2023-03-26T05:40:08;100138.06;;;10.41;100.00
70370;BME280;57790;51.356;-2.906;2023-03-26T05:43:11;100142.41;;;10.42;100.00
70370;BME280;57790;51.356;-2.906;2023-03-26T05:46:11;100144.03;;;10.43;100.00
70370;BME280;57790;51.356;-2.906;2023-03-26T05:49:12;100146.69;;;10.43;100.00
70370;BME280;57790;51.356;-2.906;2023-03-26T05:52:12;100145.56;;;10.37;100.00
70370;BME280;57790;51.356;-2.906;2023-03-26T05:55:15;100147.72;;;10.34;100.00
70370;BME280;57790;51.356;-2.906;2023-03-26T05:58:17;100146.09;;;10.33;100.00
70370;BME280;57790;51.356;-2.906;2023-03-26T06:01:17;100143.91;;;10.36;100.00
70370;BME280;57790;51.356;-2.906;2023-03-26T06:04:19;100150.38;;;10.34;100.00
70370;BME280;57790;51.356;-2.906;2023-03-26T06:07:19;100162.16;;;10.31;100.00
70370;BME280;57790;51.356;-2.906;2023-03-26T06:10:20;100168.81;;;10.27;100.00
70370;BME280;57790;51.356;-2.906;2023-03-26T06:13:21;100179.25;;;10.29;100.00
70370;BME280;57790;51.356;-2.906;2023-03-26T06:16:21;100178.75;;;10.25;100.00
70370;BME280;57790;51.356;-2.906;2023-03-26T06:19:22;100201.09;;;10.23;100.00
70370;BME280;57790;51.356;-2.906;2023-03-26T06:22:22;100199.47;;;10.22;100.00
70370;BME280;57790;51.356;-2.906;2023-03-26T06:25:22;100205.59;;;10.22;100.00
70370;BME280;57790;51.356;-2.906;2023-03-26T06:28:23;100209.88;;;10.23;100.00
70370;BME280;57790;51.356;-2.906;2023-03-26T06:31:24;100212.53;;;10.23;100.00
70370;BME280;57790;51.356;-2.906;2023-03-26T06:34:24;100224.44;;;10.19;100.00
70370;BME280;57790;51.356;-2.906;2023-03-26T06:37:25;100229.09;;;10.17;100.00
70370;BME280;57790;51.356;-2.906;2023-03-26T06:40:25;100234.88;;;10.12;100.00
70370;BME280;57790;51.356;-2.906;2023-03-26T06:43:26;100241.84;;;10.13;100.00
70370;BME280;57790;51.356;-2.906;2023-03-26T06:46:26;100240.03;;;10.14;100.00
70370;BME280;57790;51.356;-2.906;2023-03-26T06:49:26;100258.06;;;10.19;100.00
70370;BME280;57790;51.356;-2.906;2023-03-26T06:52:27;100258.88;;;10.19;100.00
70370;BME280;57790;51.356;-2.906;2023-03-26T06:55:27;100264.19;;;10.19;100.00
70370;BME280;57790;51.356;-2.906;2023-03-26T06:58:28;100267.00;;;10.18;100.00
70370;BME280;57790;51.356;-2.906;2023-03-26T07:01:29;100273.28;;;10.17;100.00
70370;BME280;57790;51.356;-2.906;2023-03-26T07:04:29;100279.41;;;10.17;100.00
70370;BME280;57790;51.356;-2.906;2023-03-26T07:07:30;100289.19;;;10.17;100.00
70370;BME280;57790;51.356;-2.906;2023-03-26T07:10:31;100289.66;;;10.20;100.00
70370;BME280;57790;51.356;-2.906;2023-03-26T07:13:32;100302.09;;;10.20;100.00
70370;BME280;57790;51.356;-2.906;2023-03-26T07:16:32;100307.91;;;10.23;100.00
70370;BME280;57790;51.356;-2.906;2023-03-26T07:19:33;100311.53;;;10.22;100.00
70370;BME280;57790;51.356;-2.906;2023-03-26T07:22:34;100320.13;;;10.24;100.00
70370;BME280;57790;51.356;-2.906;2023-03-26T07:25:35;100322.97;;;10.23;100.00
70370;BME280;57790;51.356;-2.906;2023-03-26T07:28:41;100328.91;;;10.25;100.00
70370;BME280;57790;51.356;-2.906;2023-03-26T07:31:57;100334.22;;;10.25;100.00
70370;BME280;57790;51.356;-2.906;2023-03-26T07:38:25;100346.78;;;10.31;100.00
70370;BME280;57790;51.356;-2.906;2023-03-26T07:44:57;100357.03;;;10.34;100.00
70370;BME280;57790;51.356;-2.906;2023-03-26T07:48:00;100366.47;;;10.36;100.00
70370;BME280;57790;51.356;-2.906;2023-03-26T07:51:03;100368.78;;;10.39;100.00
70370;BME280;57790;51.356;-2.906;2023-03-26T07:54:04;100372.94;;;10.42;100.00
70370;BME280;57790;51.356;-2.906;2023-03-26T08:00:39;100379.34;;;10.48;100.00
70370;BME280;57790;51.356;-2.906;2023-03-26T08:06:58;100389.63;;;10.51;100.00
70370;BME280;57790;51.356;-2.906;2023-03-26T08:10:11;100394.09;;;10.50;100.00
70370;BME280;57790;51.356;-2.906;2023-03-26T08:13:27;100396.06;;;10.56;100.00
70370;BME280;57790;51.356;-2.906;2023-03-26T08:16:46;100403.03;;;10.57;100.00
70370;BME280;57790;51.356;-2.906;2023-03-26T08:20:03;100416.28;;;10.57;100.00
70370;BME280;57790;51.356;-2.906;2023-03-26T08:26:35;100416.41;;;10.64;100.00
70370;BME280;57790;51.356;-2.906;2023-03-26T08:32:52;100436.25;;;10.76;100.00
70370;BME280;57790;51.356;-2.906;2023-03-26T08:35:53;100433.94;;;10.73;100.00
70370;BME280;57790;51.356;-2.906;2023-03-26T08:38:54;100443.50;;;10.82;100.00
70370;BME280;57790;51.356;-2.906;2023-03-26T08:45:40;100450.63;;;10.90;100.00
70370;BME280;57790;51.356;-2.906;2023-03-26T08:56:10;100474.78;;;10.95;100.00
70370;BME280;57790;51.356;-2.906;2023-03-26T09:09:47;100506.78;;;10.93;100.00
70370;BME280;57790;51.356;-2.906;2023-03-26T09:26:09;100542.78;;;10.80;100.00
70370;BME280;57790;51.356;-2.906;2023-03-26T09:32:50;100560.53;;;10.79;100.00
70370;BME280;57790;51.356;-2.906;2023-03-26T09:39:50;100584.06;;;10.82;100.00
70370;BME280;57790;51.356;-2.906;2023-03-26T09:46:19;100587.88;;;10.88;100.00
70370;BME280;57790;51.356;-2.906;2023-03-26T09:49:46;100604.63;;;10.88;100.00
70370;BME280;57790;51.356;-2.906;2023-03-26T09:53:02;100618.19;;;10.93;100.00
70370;BME280;57790;51.356;-2.906;2023-03-26T10:02:51;100647.53;;;11.00;100.00
70370;BME280;57790;51.356;-2.906;2023-03-26T10:09:36;100662.78;;;11.06;100.00
70370;BME280;57790;51.356;-2.906;2023-03-26T10:12:48;100665.13;;;11.01;100.00
70370;BME280;57790;51.356;-2.906;2023-03-26T10:16:00;100677.38;;;11.02;100.00
70370;BME280;57790;51.356;-2.906;2023-03-26T10:19:30;100684.50;;;11.01;100.00
70370;BME280;57790;51.356;-2.906;2023-03-26T10:29:43;100711.88;;;11.02;100.00
70370;BME280;57790;51.356;-2.906;2023-03-26T10:45:50;100750.66;;;11.03;100.00
70370;BME280;57790;51.356;-2.906;2023-03-26T10:52:10;100770.03;;;11.12;100.00
70370;BME280;57790;51.356;-2.906;2023-03-26T10:55:21;100784.31;;;11.11;100.00
70370;BME280;57790;51.356;-2.906;2023-03-26T10:58:28;100779.81;;;11.11;100.00
70370;BME280;57790;51.356;-2.906;2023-03-26T11:04:54;100791.94;;;11.14;100.00
70370;BME280;57790;51.356;-2.906;2023-03-26T11:08:05;100801.25;;;11.18;100.00
70370;BME280;57790;51.356;-2.906;2023-03-26T11:11:31;100805.88;;;11.16;100.00
70370;BME280;57790;51.356;-2.906;2023-03-26T11:18:12;100815.00;;;11.21;100.00
70370;BME280;57790;51.356;-2.906;2023-03-26T11:31:44;100834.44;;;11.30;100.00
70370;BME280;57790;51.356;-2.906;2023-03-26T11:41:30;100876.38;;;11.35;100.00
70370;BME280;57790;51.356;-2.906;2023-03-26T11:44:37;100885.53;;;11.32;100.00
70370;BME280;57790;51.356;-2.906;2023-03-26T11:47:48;100894.97;;;11.35;100.00
70370;BME280;57790;51.356;-2.906;2023-03-26T11:50:54;100911.56;;;11.37;100.00
70370;BME280;57790;51.356;-2.906;2023-03-26T11:53:55;100901.94;;;11.36;100.00
70370;BME280;57790;51.356;-2.906;2023-03-26T11:57:03;100914.72;;;11.40;100.00
70370;BME280;57790;51.356;-2.906;2023-03-26T12:00:15;100920.19;;;11.39;100.00
70370;BME280;57790;51.356;-2.906;2023-03-26T12:03:20;100932.00;;;11.44;100.00
70370;BME280;57790;51.356;-2.906;2023-03-26T12:06:25;100939.63;;;11.47;100.00
70370;BME280;57790;51.356;-2.906;2023-03-26T12:09:28;100963.03;;;11.44;100.00
70370;BME280;57790;51.356;-2.906;2023-03-26T12:12:31;100971.13;;;11.42;100.00
70370;BME280;57790;51.356;-2.906;2023-03-26T12:15:32;100984.25;;;11.44;100.00
70370;BME280;57790;51.356;-2.906;2023-03-26T12:18:33;100981.59;;;11.44;100.00
70370;BME280;57790;51.356;-2.906;2023-03-26T12:21:44;100987.09;;;11.50;100.00
70370;BME280;57790;51.356;-2.906;2023-03-26T12:25:00;101001.34;;;11.49;100.00
70370;BME280;57790;51.356;-2.906;2023-03-26T12:31:14;101022.44;;;11.51;100.00
70370;BME280;57790;51.356;-2.906;2023-03-26T12:34:19;101039.69;;;11.55;100.00
70370;BME280;57790;51.356;-2.906;2023-03-26T12:37:37;101034.06;;;11.58;100.00
70370;BME280;57790;51.356;-2.906;2023-03-26T12:40:38;101048.03;;;11.60;100.00
70370;BME280;57790;51.356;-2.906;2023-03-26T12:46:44;101057.81;;;11.59;100.00
70370;BME280;57790;51.356;-2.906;2023-03-26T12:49:47;101063.94;;;11.60;100.00
70370;BME280;57790;51.356;-2.906;2023-03-26T12:53:01;101070.25;;;11.59;100.00
70370;BME280;57790;51.356;-2.906;2023-03-26T13:15:29;101117.91;;;11.69;100.00
70370;BME280;57790;51.356;-2.906;2023-03-26T13:18:54;101136.25;;;11.80;100.00
70370;BME280;57790;51.356;-2.906;2023-03-26T13:25:35;101147.69;;;11.80;100.00
70370;BME280;57790;51.356;-2.906;2023-03-26T13:28:46;101154.00;;;11.79;100.00
70370;BME280;57790;51.356;-2.906;2023-03-26T13:32:10;101166.81;;;11.84;100.00
70370;BME280;57790;51.356;-2.906;2023-03-26T13:42:08;101181.75;;;11.85;100.00
70370;BME280;57790;51.356;-2.906;2023-03-26T13:48:56;101196.41;;;11.89;100.00
70370;BME280;57790;51.356;-2.906;2023-03-26T13:52:06;101193.91;;;11.96;100.00
70370;BME280;57790;51.356;-2.906;2023-03-26T13:56:12;101207.03;;;11.89;100.00
70370;BME280;57790;51.356;-2.906;2023-03-26T13:58:51;101220.31;;;11.97;100.00
70370;BME280;57790;51.356;-2.906;2023-03-26T14:01:56;101229.97;;;11.98;100.00
70370;BME280;57790;51.356;-2.906;2023-03-26T14:05:12;101233.63;;;11.97;100.00
70370;BME280;57790;51.356;-2.906;2023-03-26T14:08:31;101242.56;;;11.96;100.00
70370;BME280;57790;51.356;-2.906;2023-03-26T14:15:05;101259.19;;;11.98;100.00
70370;BME280;57790;51.356;-2.906;2023-03-26T14:18:30;101260.56;;;12.02;100.00
70370;BME280;57790;51.356;-2.906;2023-03-26T14:22:06;101273.03;;;12.02;100.00
70370;BME280;57790;51.356;-2.906;2023-03-26T14:28:35;101286.81;;;12.05;100.00
70370;BME280;57790;51.356;-2.906;2023-03-26T15:24:03;101410.47;;;12.17;100.00
70370;BME280;57790;51.356;-2.906;2023-03-26T15:27:34;101416.63;;;12.18;100.00
70370;BME280;57790;51.356;-2.906;2023-03-26T15:40:58;101454.56;;;12.28;100.00
70370;BME280;57790;51.356;-2.906;2023-03-26T15:44:29;101463.69;;;12.26;100.00
70370;BME280;57790;51.356;-2.906;2023-03-26T15:47:41;101463.53;;;12.27;100.00
70370;BME280;57790;51.356;-2.906;2023-03-26T15:56:58;101488.13;;;12.29;100.00
70370;BME280;57790;51.356;-2.906;2023-03-26T16:00:21;101495.13;;;12.30;100.00
70370;BME280;57790;51.356;-2.906;2023-03-26T16:03:32;101501.28;;;12.31;100.00
70370;BME280;57790;51.356;-2.906;2023-03-26T16:06:59;101504.94;;;12.30;100.00
70370;BME280;57790;51.356;-2.906;2023-03-26T16:13:32;101526.06;;;12.31;100.00
70370;BME280;57790;51.356;-2.906;2023-03-26T16:17:03;101540.47;;;12.29;100.00
70370;BME280;57790;51.356;-2.906;2023-03-26T16:20:20;101550.44;;;12.27;100.00
70370;BME280;57790;51.356;-2.906;2023-03-26T16:30:05;101577.16;;;12.07;100.00
70370;BME280;57790;51.356;-2.906;2023-03-26T16:33:15;101580.88;;;12.14;100.00
70370;BME280;57790;51.356;-2.906;2023-03-26T16:39:40;101588.31;;;12.11;100.00
70370;BME280;57790;51.356;-2.906;2023-03-26T16:46:24;101607.47;;;12.14;100.00
70370;BME280;57790;51.356;-2.906;2023-03-26T16:49:53;101609.44;;;12.12;100.00
70370;BME280;57790;51.356;-2.906;2023-03-26T17:03:16;101635.69;;;11.98;100.00
70370;BME280;57790;51.356;-2.906;2023-03-26T17:10:12;101659.69;;;11.78;100.00
70370;BME280;57790;51.356;-2.906;2023-03-26T17:13:20;101662.97;;;11.72;100.00
70370;BME280;57790;51.356;-2.906;2023-03-26T17:16:24;101666.34;;;11.65;100.00
70370;BME280;57790;51.356;-2.906;2023-03-26T17:19:38;101664.78;;;11.72;100.00
70370;BME280;57790;51.356;-2.906;2023-03-26T17:22:46;101672.81;;;11.52;100.00
70370;BME280;57790;51.356;-2.906;2023-03-26T17:39:19;101711.31;;;11.76;100.00
70370;BME280;57790;51.356;-2.906;2023-03-26T17:45:31;101724.31;;;11.79;100.00
70370;BME280;57790;51.356;-2.906;2023-03-26T17:48:35;101723.75;;;11.75;100.00
70370;BME280;57790;51.356;-2.906;2023-03-26T17:51:49;101724.06;;;11.72;100.00
70370;BME280;57790;51.356;-2.906;2023-03-26T17:54:53;101732.72;;;11.74;100.00
70370;BME280;57790;51.356;-2.906;2023-03-26T17:57:59;101727.53;;;11.73;100.00
70370;BME280;57790;51.356;-2.906;2023-03-26T18:01:13;101731.72;;;11.75;100.00
70370;BME280;57790;51.356;-2.906;2023-03-26T18:04:23;101732.28;;;11.79;100.00
70370;BME280;57790;51.356;-2.906;2023-03-26T18:17:44;101756.47;;;11.76;100.00
70370;BME280;57790;51.356;-2.906;2023-03-26T18:20:46;101762.06;;;11.73;100.00
70370;BME280;57790;51.356;-2.906;2023-03-26T18:23:48;101762.34;;;11.70;100.00
70370;BME280;57790;51.356;-2.906;2023-03-26T18:27:10;101758.84;;;11.69;100.00
70370;BME280;57790;51.356;-2.906;2023-03-26T18:30:15;101772.56;;;11.65;100.00
70370;BME280;57790;51.356;-2.906;2023-03-26T18:33:16;101781.53;;;11.63;100.00
70370;BME280;57790;51.356;-2.906;2023-03-26T18:36:16;101780.00;;;11.61;100.00
70370;BME280;57790;51.356;-2.906;2023-03-26T18:39:17;101789.22;;;11.57;100.00
70370;BME280;57790;51.356;-2.906;2023-03-26T18:42:18;101812.41;;;11.55;100.00
70370;BME280;57790;51.356;-2.906;2023-03-26T18:45:28;101823.47;;;11.50;100.00
70370;BME280;57790;51.356;-2.906;2023-03-26T18:48:30;101826.44;;;11.47;100.00
70370;BME280;57790;51.356;-2.906;2023-03-26T18:51:31;101834.69;;;11.44;100.00
70370;BME280;57790;51.356;-2.906;2023-03-26T18:54:34;101852.69;;;11.41;100.00
70370;BME280;57790;51.356;-2.906;2023-03-26T18:57:35;101855.34;;;11.41;100.00
70370;BME280;57790;51.356;-2.906;2023-03-26T19:00:35;101866.94;;;11.40;100.00
70370;BME280;57790;51.356;-2.906;2023-03-26T19:03:38;101866.25;;;11.38;100.00
70370;BME280;57790;51.356;-2.906;2023-03-26T19:06:41;101880.94;;;11.32;100.00
70370;BME280;57790;51.356;-2.906;2023-03-26T19:09:43;101886.63;;;11.27;100.00
70370;BME280;57790;51.356;-2.906;2023-03-26T19:12:44;101886.63;;;11.27;100.00
70370;BME280;57790;51.356;-2.906;2023-03-26T19:15:46;101901.03;;;11.25;100.00
70370;BME280;57790;51.356;-2.906;2023-03-26T19:18:49;101912.06;;;11.20;100.00
70370;BME280;57790;51.356;-2.906;2023-03-26T19:21:50;101914.31;;;11.15;100.00
70370;BME280;57790;51.356;-2.906;2023-03-26T19:24:55;101918.78;;;11.15;100.00
70370;BME280;57790;51.356;-2.906;2023-03-26T19:27:57;101917.22;;;11.12;100.00
70370;BME280;57790;51.356;-2.906;2023-03-26T19:34:37;101937.03;;;11.08;100.00
70370;BME280;57790;51.356;-2.906;2023-03-26T19:37:48;101933.69;;;11.06;100.00
70370;BME280;57790;51.356;-2.906;2023-03-26T19:40:58;101932.00;;;11.05;100.00
70370;BME280;57790;51.356;-2.906;2023-03-26T19:44:00;101934.81;;;11.03;100.00
70370;BME280;57790;51.356;-2.906;2023-03-26T19:47:05;101938.72;;;10.99;100.00
70370;BME280;57790;51.356;-2.906;2023-03-26T19:50:34;101941.38;;;10.99;100.00
70370;BME280;57790;51.356;-2.906;2023-03-26T19:53:35;101948.47;;;10.99;100.00
70370;BME280;57790;51.356;-2.906;2023-03-26T19:56:42;101956.84;;;10.94;100.00
70370;BME280;57790;51.356;-2.906;2023-03-26T19:59:42;101957.66;;;10.95;100.00
70370;BME280;57790;51.356;-2.906;2023-03-26T20:02:43;101965.78;;;10.93;100.00
70370;BME280;57790;51.356;-2.906;2023-03-26T20:05:47;101980.16;;;10.91;100.00
70370;BME280;57790;51.356;-2.906;2023-03-26T20:08:48;101984.63;;;10.90;100.00
70370;BME280;57790;51.356;-2.906;2023-03-26T20:11:51;101983.91;;;10.88;100.00
70370;BME280;57790;51.356;-2.906;2023-03-26T20:14:51;101992.97;;;10.86;100.00
70370;BME280;57790;51.356;-2.906;2023-03-26T20:17:52;101998.28;;;10.86;100.00
70370;BME280;57790;51.356;-2.906;2023-03-26T20:20:52;102003.69;;;10.84;100.00
70370;BME280;57790;51.356;-2.906;2023-03-26T20:23:53;102007.31;;;10.83;100.00
70370;BME280;57790;51.356;-2.906;2023-03-26T20:26:54;102006.50;;;10.83;100.00
70370;BME280;57790;51.356;-2.906;2023-03-26T20:29:54;102007.31;;;10.83;100.00
70370;BME280;57790;51.356;-2.906;2023-03-26T20:32:55;102015.28;;;10.83;100.00
70370;BME280;57790;51.356;-2.906;2023-03-26T20:35:56;102022.53;;;10.81;100.00
70370;BME280;57790;51.356;-2.906;2023-03-26T20:38:57;102034.13;;;10.80;100.00
70370;BME280;57790;51.356;-2.906;2023-03-26T20:41:58;102031.06;;;10.85;100.00
70370;BME280;57790;51.356;-2.906;2023-03-26T20:44:58;102045.56;;;10.81;100.00
70370;BME280;57790;51.356;-2.906;2023-03-26T20:47:58;102035.66;;;10.83;100.00
70370;BME280;57790;51.356;-2.906;2023-03-26T20:51:01;102037.63;;;10.81;100.00
70370;BME280;57790;51.356;-2.906;2023-03-26T20:54:03;102041.81;;;10.83;100.00
70370;BME280;57790;51.356;-2.906;2023-03-26T20:57:03;102049.63;;;10.85;100.00